Hlavní strana
METAR-TAF:

METAR-TAF

Letiště :

San José, Kostarika

zeměpisná šířka: 09-57N, zeměpisná délka: 084-09W, výška: 994 m

Aktuální stav počasí

Zpráva byla vytvořena před 1 hodinou a 3 minutami, v 17:00 UTC
Východní vítr 19 kt s nárazy do 29 kt
Teplota 25°C
Vlhkost vzduchu 44%
Tlak 1019 hPa
Viditelnost 10 km a více
Žádná oblačnost pod 1500 m, nevyskytují se cumulonimby.

METAR: MRPV 181700Z 08019G29KT CAVOK 25/12 A3008 NOSIG

Čas: 12:03 (18:03 UTC)

Předpověď počasí

Zpráva byla vytvořena před 7 hodinami a 3 minutami, v 11:00 UTC
Předpověď platná od 18 v 12 UTC do 19 v 12 UTC
Východní vítr 18 kt
Viditelnost 10 km a více
Žádná oblačnost pod 1500 m, nevyskytují se cumulonimby.
Dočasný
od 18 v 12 UTC do 18 v 21 UTC
Východní vítr 20 kt s nárazy do 30 kt

TAF: MRPV 181100Z 1812/1912 08018KT CAVOK TX26/1819Z TN18/1911Z TEMPO 1812/1821 09020G30KT

Stav a předpovědi počasí z více než 4 000 letišť (zprávy METAR a TAF).

Červené a žluté tečky na mapě představují dostupné meteorologické stanice.

Když kurzor umístíte na tečku, zobrazí se název stanice.

Pak kliknutím zobrazíte stav a předpověď počasí.

Chcete-li změnit mapu, kliknutím na zelené tlačítko se znaménkem +mapu přiblížíte, kliknutím na zelené tlačítko se znaménkem – mapu oddálíte a kliknutím na zelené šipky přejdete na sousední mapy.


METAR-TAF: